Time;durP1;ratioP1;P1;durP2;ratioP2;P2;SDS_P1;SDS_P2;PMS_P1;PMS_P2;Temp;Humidity;BMP_temperature;BMP_pressure;BME280_temperature;BME280_humidity;BME280_pressure;Samples;Min_cycle;Max_cycle;Signal;HPM_P1;HPM_P2
2022/12/29 00:00:20;;;;;;;27.50;15.83;;;;;;;6.29;100.00;100564.94;5089021;28;20231;-56
2022/12/29 00:02:49;;;;;;;31.10;15.00;;;;;;;6.21;100.00;100571.78;5089651;28;20202;-56
2022/12/29 00:05:16;;;;;;;27.40;14.63;;;;;;;6.18;100.00;100570.91;5089627;28;20203;-56
2022/12/29 00:07:43;;;;;;;31.40;15.30;;;;;;;6.19;100.00;100569.19;5089196;28;20192;-56
2022/12/29 00:10:10;;;;;;;28.10;14.47;;;;;;;6.23;100.00;100575.19;5089508;28;20698;-56
2022/12/29 00:15:39;;;;;;;26.40;14.47;;;;;;;6.31;100.00;100574.41;5089282;28;20217;-54
2022/12/29 00:18:08;;;;;;;24.47;14.10;;;;;;;6.31;100.00;100579.56;5089374;28;20227;-55
2022/12/29 00:37:14;;;;;;;21.20;12.67;;;;;;;6.59;100.00;100597.75;5093063;28;20319;-56
2022/12/29 00:45:09;;;;;;;20.90;13.80;;;;;;;6.78;100.00;100604.69;5093384;28;20352;-56
2022/12/29 00:47:36;;;;;;;19.97;13.13;;;;;;;6.82;100.00;100616.78;5092905;28;20660;-56
2022/12/29 00:50:04;;;;;;;20.13;13.03;;;;;;;6.80;100.00;100610.75;5092910;28;20552;-56
2022/12/29 00:52:31;;;;;;;21.10;12.10;;;;;;;6.84;100.00;100617.66;5092604;28;20702;-56
2022/12/29 00:54:58;;;;;;;23.70;13.10;;;;;;;6.65;100.00;100616.72;5092314;28;20192;-56
2022/12/29 00:57:25;;;;;;;16.83;11.97;;;;;;;6.73;100.00;100620.19;5092446;28;20322;-56
2022/12/29 00:59:52;;;;;;;18.63;12.00;;;;;;;6.66;100.00;100602.94;5092570;28;20205;-56
2022/12/29 01:02:19;;;;;;;17.97;11.47;;;;;;;6.78;100.00;100617.59;5092705;28;20199;-56
2022/12/29 01:04:46;;;;;;;20.37;12.00;;;;;;;6.71;100.00;100611.56;5092569;28;20195;-56
2022/12/29 01:07:14;;;;;;;24.83;12.53;;;;;;;6.84;100.00;100620.22;5092516;28;20675;-56
2022/12/29 01:15:07;;;;;;;15.43;11.10;;;;;;;6.96;100.00;100609.94;5092574;28;20457;-61
2022/12/29 01:17:34;;;;;;;18.27;12.43;;;;;;;7.03;100.00;100597.91;5092170;28;20223;-55
2022/12/29 01:20:01;;;;;;;22.97;12.60;;;;;;;7.11;100.00;100604.81;5092625;28;20191;-60
2022/12/29 01:22:29;;;;;;;19.63;12.23;;;;;;;7.21;100.00;100603.13;5093022;28;20744;-60
2022/12/29 01:24:57;;;;;;;18.37;11.70;;;;;;;7.21;100.00;100605.72;5092871;28;20243;-61
2022/12/29 01:27:24;;;;;;;17.50;11.80;;;;;;;7.25;100.00;100599.69;5092830;28;20195;-61
2022/12/29 01:29:51;;;;;;;21.73;12.60;;;;;;;7.11;100.00;100581.56;5092798;28;20206;-61
2022/12/29 01:32:18;;;;;;;21.83;13.30;;;;;;;7.27;100.00;100606.59;5092542;28;20191;-61
2022/12/29 01:34:45;;;;;;;20.43;14.00;;;;;;;7.22;100.00;100595.38;5092468;28;20204;-60
2022/12/29 01:37:12;;;;;;;20.13;12.67;;;;;;;7.24;100.00;100596.25;5092220;28;20199;-61
2022/12/29 01:39:40;;;;;;;26.70;13.80;;;;;;;7.24;100.00;100593.66;5092445;28;20670;-60
2022/12/29 01:42:17;;;;;;;22.50;13.93;;;;;;;7.31;100.00;100589.38;5091582;28;20206;-61
2022/12/29 01:44:53;;;;;;;20.17;13.80;;;;;;;7.28;100.00;100594.53;5092146;28;20205;-62
2022/12/29 01:47:30;;;;;;;24.90;14.63;;;;;;;7.29;100.00;100578.19;5091799;28;20214;-61
2022/12/29 01:50:00;;;;;;;22.13;15.23;;;;;;;7.26;100.00;100584.19;5091872;28;20195;-61
2022/12/29 01:52:30;;;;;;;20.40;14.40;;;;;;;7.26;100.00;100573.88;5091894;28;20209;-61
2022/12/29 01:55:00;;;;;;;20.53;13.67;;;;;;;7.32;100.00;100575.63;5092223;28;20691;-61
2022/12/29 01:57:32;;;;;;;21.13;14.57;;;;;;;7.19;100.00;100569.56;5092498;28;20659;-61
2022/12/29 02:00:04;;;;;;;24.27;15.40;;;;;;;7.22;100.00;100569.53;5092528;28;20607;-61
2022/12/29 02:02:32;;;;;;;21.83;14.67;;;;;;;7.26;100.00;100567.84;5092117;28;20214;-61
2022/12/29 02:05:01;;;;;;;23.23;15.63;;;;;;;7.28;100.00;100555.78;5092167;28;20674;-61
2022/12/29 02:07:29;;;;;;;23.67;15.47;;;;;;;7.35;100.00;100549.75;5091966;28;20188;-61
2022/12/29 02:09:56;;;;;;;24.07;15.43;;;;;;;7.33;100.00;100550.66;5091857;28;20199;-61
2022/12/29 02:12:25;;;;;;;27.57;16.10;;;;;;;7.43;100.00;100544.63;5091235;28;20200;-61
2022/12/29 02:15:01;;;;;;;23.03;14.90;;;;;;;7.45;100.00;100542.91;5091859;28;20260;-61
2022/12/29 02:17:42;;;;;;;23.43;14.47;;;;;;;7.49;100.00;100547.19;5091919;28;20199;-61
2022/12/29 02:20:53;;;;;;;21.33;14.43;;;;;;;7.54;100.00;100536.03;5091902;28;20199;-61
2022/12/29 02:23:41;;;;;;;26.40;14.60;;;;;;;7.56;100.00;100525.69;5062056;28;20195;-61
2022/12/29 02:26:30;;;;;;;18.17;13.70;;;;;;;7.57;100.00;100532.53;5092035;28;20198;-62
2022/12/29 02:29:21;;;;;;;18.40;12.83;;;;;;;7.51;100.00;100528.25;5092187;28;20191;-62
2022/12/29 02:31:57;;;;;;;19.60;14.30;;;;;;;7.53;100.00;100530.84;5091654;28;20199;-62
2022/12/29 02:34:35;;;;;;;25.23;14.97;;;;;;;7.56;100.00;100523.94;5090949;28;20199;-62
2022/12/29 02:37:09;;;;;;;38.53;14.90;;;;;;;7.59;100.00;100523.06;5091547;28;20229;-61
2022/12/29 02:39:42;;;;;;;19.90;13.20;;;;;;;7.61;100.00;100526.53;5090888;28;20312;-56
2022/12/29 02:42:15;;;;;;;22.77;15.10;;;;;;;7.54;100.00;100519.66;5090702;28;20206;-56
2022/12/29 02:44:55;;;;;;;20.97;14.87;;;;;;;7.55;100.00;100516.22;5091087;28;20203;-56
2022/12/29 02:47:31;;;;;;;21.80;14.57;;;;;;;7.56;100.00;100512.78;5090853;28;20206;-55
2022/12/29 02:50:03;;;;;;;25.83;15.57;;;;;;;7.45;100.00;100511.91;5091666;28;20604;-62
2022/12/29 02:52:34;;;;;;;21.20;15.60;;;;;;;7.48;100.00;100510.16;5091388;28;20195;-62
2022/12/29 02:55:01;;;;;;;23.97;15.67;;;;;;;7.44;100.00;100507.59;5090990;28;20279;-62
2022/12/29 02:57:33;;;;;;;25.67;16.13;;;;;;;7.29;100.00;100496.41;5090572;28;20206;-62
2022/12/29 03:00:04;;;;;;;24.33;16.07;;;;;;;7.29;100.00;100506.75;5090862;28;20196;-61
2022/12/29 03:02:47;;;;;;;25.60;16.50;;;;;;;7.22;100.00;100496.41;5090729;28;20584;-61
2022/12/29 03:05:23;;;;;;;31.13;19.00;;;;;;;7.21;100.00;100508.47;5090518;28;20203;-54
2022/12/29 03:07:57;;;;;;;29.83;17.73;;;;;;;7.17;100.00;100504.16;5090408;28;20620;-55
2022/12/29 03:10:36;;;;;;;29.33;18.53;;;;;;;7.18;100.00;100513.63;5090251;28;20220;-56
2022/12/29 03:16:04;;;;;;;29.70;18.43;;;;;;;7.07;100.00;100512.75;5090374;28;20218;-55
2022/12/29 03:18:45;;;;;;;29.87;18.73;;;;;;;7.01;100.00;100506.69;5089765;28;20600;-55
2022/12/29 03:21:16;;;;;;;28.97;19.10;;;;;;;6.82;100.00;100510.97;5089991;28;20213;-55
2022/12/29 03:23:48;;;;;;;29.23;19.17;;;;;;;6.76;100.00;100500.66;5090227;28;20667;-60
2022/12/29 03:26:19;;;;;;;28.83;18.70;;;;;;;6.53;100.00;100504.03;5090305;28;20191;-61
2022/12/29 03:28:51;;;;;;;33.10;19.53;;;;;;;6.52;100.00;100504.88;5090049;28;20260;-60
2022/12/29 03:31:20;;;;;;;37.03;20.17;;;;;;;6.46;100.00;100502.25;5090191;28;20199;-61
2022/12/29 03:33:49;;;;;;;28.90;19.37;;;;;;;6.47;100.00;100497.97;5090102;28;20684;-61
2022/12/29 03:36:27;;;;;;;32.67;19.27;;;;;;;6.38;100.00;100503.97;5090057;28;20205;-61
2022/12/29 03:39:01;;;;;;;30.70;19.70;;;;;;;6.23;100.00;100503.88;5090107;28;20221;-62
2022/12/29 03:41:32;;;;;;;31.30;18.63;;;;;;;6.25;100.00;100509.06;5090003;28;20626;-61
2022/12/29 03:43:59;;;;;;;32.53;17.83;;;;;;;6.14;100.00;100491.81;5090130;28;20195;-61
2022/12/29 03:46:26;;;;;;;27.60;17.97;;;;;;;6.13;100.00;100499.53;5090314;28;20199;-61
2022/12/29 03:48:55;;;;;;;30.97;18.80;;;;;;;6.10;100.00;100504.69;5090235;28;20191;-61
2022/12/29 03:51:21;;;;;;;40.03;22.40;;;;;;;5.96;100.00;100501.19;5089987;28;20191;-61
2022/12/29 03:53:48;;;;;;;38.70;23.50;;;;;;;5.95;100.00;100507.19;5089560;28;20198;-55
2022/12/29 03:56:15;;;;;;;38.20;24.07;;;;;;;5.94;100.00;100501.19;5089781;28;20590;-56
2022/12/29 03:58:42;;;;;;;41.27;21.97;;;;;;;5.94;100.00;100506.31;5089058;28;20211;-55
2022/12/29 04:01:09;;;;;;;42.33;25.70;;;;;;;5.93;100.00;100496.00;5089592;28;20192;-54
2022/12/29 04:03:36;;;;;;;42.13;25.27;;;;;;;5.93;100.00;100499.44;5089427;28;20260;-55
2022/12/29 04:06:04;;;;;;;36.40;21.93;;;;;;;5.86;100.00;100505.41;5088932;28;20191;-55
2022/12/29 04:08:31;;;;;;;36.07;23.20;;;;;;;5.70;100.00;100491.53;5089270;28;20195;-55
2022/12/29 04:10:58;;;;;;;44.80;23.43;;;;;;;5.70;100.00;100509.56;5089550;28;20628;-55
2022/12/29 04:13:25;;;;;;;44.97;24.67;;;;;;;5.67;100.00;100511.25;5089205;28;20298;-56
2022/12/29 04:15:52;;;;;;;46.33;24.80;;;;;;;5.62;100.00;100512.97;5089182;28;20201;-56
2022/12/29 04:18:19;;;;;;;38.47;22.83;;;;;;;5.58;100.00;100513.78;5089025;28;20313;-56
2022/12/29 04:21:02;;;;;;;43.47;24.33;;;;;;;5.46;100.00;100501.66;5088815;28;20675;-56
2022/12/29 04:23:33;;;;;;;36.63;23.00;;;;;;;5.46;100.00;100517.13;5089203;28;20248;-56
2022/12/29 04:26:00;;;;;;;43.20;24.00;;;;;;;5.30;100.00;100516.16;5089095;28;20203;-56
2022/12/29 04:28:27;;;;;;;40.37;23.53;;;;;;;5.27;100.00;100518.69;5089283;28;20697;-56
2022/12/29 04:30:54;;;;;;;43.23;24.87;;;;;;;5.29;100.00;100521.28;5089244;28;20285;-55
2022/12/29 04:33:21;;;;;;;40.90;23.57;;;;;;;5.25;100.00;100527.25;5088942;28;20203;-55
2022/12/29 04:35:49;;;;;;;42.87;23.00;;;;;;;5.30;100.00;100530.72;5085963;28;20191;-55
2022/12/29 04:38:16;;;;;;;47.47;24.13;;;;;;;5.32;100.00;100531.56;5088421;28;20686;-56
2022/12/29 04:40:44;;;;;;;43.63;23.93;;;;;;;5.32;100.00;100537.59;5087286;28;20361;-55
2022/12/29 04:43:12;;;;;;;43.47;25.20;;;;;;;5.27;100.00;100543.56;5087212;28;20200;-57
2022/12/29 04:45:39;;;;;;;43.30;25.50;;;;;;;5.28;100.00;100542.72;5087756;28;20680;-56
2022/12/29 04:48:06;;;;;;;48.30;26.37;;;;;;;5.21;100.00;100541.78;5087474;28;20206;-56
2022/12/29 04:50:33;;;;;;;48.67;27.47;;;;;;;5.28;100.00;100540.16;5088410;28;20693;-62
2022/12/29 04:53:00;;;;;;;47.03;25.60;;;;;;;5.34;100.00;100548.78;5088509;28;20575;-61
2022/12/29 04:55:28;;;;;;;45.10;25.97;;;;;;;5.31;100.00;100528.13;5089350;28;20205;-62
2022/12/29 04:57:56;;;;;;;47.87;25.47;;;;;;;5.43;100.00;100547.97;5089409;28;20731;-55
2022/12/29 05:00:23;;;;;;;41.10;25.37;;;;;;;5.39;100.00;100553.97;5088474;28;20249;-55
2022/12/29 05:02:50;;;;;;;42.50;25.23;;;;;;;5.40;100.00;100550.56;5089080;28;20195;-56
2022/12/29 05:05:17;;;;;;;41.80;24.83;;;;;;;5.38;100.00;100550.53;5088783;28;20586;-56
2022/12/29 05:07:45;;;;;;;43.50;23.80;;;;;;;5.36;100.00;100548.78;5089182;28;20195;-61
2022/12/29 05:10:12;;;;;;;43.43;24.93;;;;;;;5.30;100.00;100541.88;5089235;28;20746;-61
2022/12/29 05:12:41;;;;;;;40.07;23.77;;;;;;;5.32;100.00;100547.88;5088819;28;20195;-56
2022/12/29 05:15:13;;;;;;;42.07;23.23;;;;;;;5.42;100.00;100567.72;5088607;28;20235;-55
2022/12/29 05:18:17;;;;;;;38.80;23.90;;;;;;;5.47;100.00;100562.63;5090303;28;20199;-60
2022/12/29 05:20:44;;;;;;;49.60;28.33;;;;;;;5.37;100.00;100551.38;5092625;28;20282;-61
2022/12/29 05:23:11;;;;;;;58.37;32.80;;;;;;;5.28;100.00;100553.00;5092316;28;20274;-61
2022/12/29 05:25:40;;;;;;;61.80;34.37;;;;;;;5.11;100.00;100545.97;5092442;28;20208;-61
2022/12/29 05:28:07;;;;;;;56.43;34.83;;;;;;;5.09;100.00;100539.09;5093035;28;20199;-62
2022/12/29 05:30:35;;;;;;;56.63;35.67;;;;;;;5.15;100.00;100528.00;5092853;28;20194;-61
2022/12/29 05:33:02;;;;;;;62.07;34.77;;;;;;;5.20;100.00;100537.47;5092121;28;20667;-55
2022/12/29 05:35:29;;;;;;;60.93;33.00;;;;;;;5.28;100.00;100547.88;5091865;28;20195;-55
2022/12/29 05:37:56;;;;;;;61.47;31.63;;;;;;;5.39;100.00;100544.53;5091843;28;20207;-54
2022/12/29 05:40:22;;;;;;;54.23;30.83;;;;;;;5.35;100.00;100539.34;5091508;28;20246;-54
2022/12/29 05:42:49;;;;;;;55.77;31.33;;;;;;;5.41;100.00;100541.97;5091468;28;20199;-54
2022/12/29 05:45:16;;;;;;;57.53;34.33;;;;;;;5.37;100.00;100533.38;5090844;28;20199;-54
2022/12/29 05:47:45;;;;;;;65.80;39.70;;;;;;;5.30;100.00;100530.72;5091849;28;20610;-59
2022/12/29 05:50:12;;;;;;;71.30;39.97;;;;;;;5.22;100.00;100529.78;5092133;28;20195;-60
2022/12/29 05:52:44;;;;;;;60.93;35.63;;;;;;;5.20;100.00;100532.34;5091772;28;20616;-59
2022/12/29 05:55:12;;;;;;;54.20;33.97;;;;;;;5.15;100.00;100528.00;5091892;28;20285;-59
2022/12/29 05:57:39;;;;;;;57.23;34.07;;;;;;;5.08;100.00;100525.34;5091724;28;20282;-61
2022/12/29 06:00:07;;;;;;;59.57;34.33;;;;;;;5.03;100.00;100516.75;5086796;28;20215;-59
2022/12/29 06:02:34;;;;;;;58.83;32.77;;;;;;;5.16;100.00;100537.47;5084233;28;20200;-59
2022/12/29 06:05:02;;;;;;;58.87;32.87;;;;;;;5.22;100.00;100532.34;5091587;28;20196;-59
2022/12/29 06:07:29;;;;;;;61.03;34.00;;;;;;;5.31;100.00;100542.72;5091546;28;20594;-59
2022/12/29 06:09:56;;;;;;;58.43;33.60;;;;;;;5.31;100.00;100537.56;5091483;28;20302;-59
2022/12/29 06:12:23;;;;;;;56.83;32.90;;;;;;;5.37;100.00;100540.22;5092168;28;20577;-58
2022/12/29 06:14:49;;;;;;;59.23;32.93;;;;;;;5.36;100.00;100541.06;5091405;28;20294;-59
2022/12/29 06:17:16;;;;;;;51.87;31.57;;;;;;;5.46;100.00;100536.00;5091483;28;20195;-58
2022/12/29 06:19:43;;;;;;;55.60;32.30;;;;;;;5.40;100.00;100540.25;5091583;28;20790;-60
2022/12/29 06:22:13;;;;;;;60.07;35.33;;;;;;;5.46;100.00;100537.72;5091808;28;20594;-58
2022/12/29 06:24:40;;;;;;;58.23;32.97;;;;;;;5.50;100.00;100538.63;5091083;28;20214;-59
2022/12/29 06:27:07;;;;;;;59.93;33.37;;;;;;;5.62;100.00;100541.28;5091162;28;20294;-59
2022/12/29 06:29:36;;;;;;;57.00;32.97;;;;;;;5.65;100.00;100547.31;5090883;28;20561;-59
2022/12/29 06:32:03;;;;;;;61.00;33.13;;;;;;;5.55;100.00;100553.22;5089222;28;20304;-58
2022/12/29 06:34:30;;;;;;;53.60;31.37;;;;;;;5.64;100.00;100548.19;5089983;28;20229;-57
2022/12/29 06:36:57;;;;;;;61.47;32.93;;;;;;;5.64;100.00;100553.34;5090989;28;20238;-58
2022/12/29 06:39:25;;;;;;;60.53;33.03;;;;;;;5.73;100.00;100557.69;5088906;28;20245;-55
2022/12/29 06:41:53;;;;;;;64.07;34.43;;;;;;;5.74;100.00;100569.72;5089218;28;20219;-54
2022/12/29 06:44:20;;;;;;;70.43;33.10;;;;;;;5.81;100.00;100569.75;5088961;28;20628;-53
2022/12/29 06:46:48;;;;;;;56.03;32.87;;;;;;;5.93;100.00;100571.59;5087698;28;20757;-54
2022/12/29 06:49:15;;;;;;;66.00;35.03;;;;;;;5.83;100.00;100565.50;5089553;28;20215;-59
2022/12/29 06:51:42;;;;;;;58.17;33.03;;;;;;;5.98;100.00;100576.78;5089441;28;20666;-59
2022/12/29 06:54:09;;;;;;;60.23;33.37;;;;;;;6.04;100.00;100581.97;5089941;28;20227;-59
2022/12/29 06:56:38;;;;;;;61.97;33.67;;;;;;;6.16;100.00;100584.63;5110888;28;20195;-59
2022/12/29 06:59:05;;;;;;;60.30;33.87;;;;;;;6.17;100.00;100586.34;5110440;27;20221;-60
2022/12/29 07:01:31;;;;;;;63.90;35.27;;;;;;;6.24;100.00;100592.41;5111328;28;20199;-59
2022/12/29 07:03:58;;;;;;;55.87;32.23;;;;;;;6.40;100.00;100592.50;5111719;28;20194;-60
2022/12/29 07:06:25;;;;;;;57.53;32.73;;;;;;;6.56;100.00;100602.03;5095516;28;20229;-59
2022/12/29 07:08:54;;;;;;;55.10;32.27;;;;;;;6.66;100.00;100591.78;5090898;28;20538;-59
2022/12/29 07:11:22;;;;;;;64.23;32.87;;;;;;;6.68;100.00;100593.47;5089468;28;20202;-54
2022/12/29 07:13:51;;;;;;;64.57;33.57;;;;;;;6.48;100.00;100593.41;5087527;28;20191;-54
2022/12/29 07:16:18;;;;;;;72.63;35.37;;;;;;;6.37;100.00;100595.06;5087639;28;20210;-53
2022/12/29 07:18:45;;;;;;;72.80;37.50;;;;;;;6.27;100.00;100590.72;5088445;28;20698;-54
2022/12/29 07:21:12;;;;;;;63.90;38.37;;;;;;;6.20;100.00;100607.00;5088177;28;20243;-53
2022/12/29 07:23:39;;;;;;;65.07;36.60;;;;;;;6.16;100.00;100603.53;5088293;28;20195;-54
2022/12/29 07:26:07;;;;;;;62.97;32.83;;;;;;;6.13;100.00;100600.06;5088488;28;20286;-55
2022/12/29 07:28:37;;;;;;;56.27;32.40;;;;;;;6.27;100.00;100598.44;5089164;28;20286;-59
2022/12/29 07:31:06;;;;;;;59.77;31.80;;;;;;;6.21;100.00;100593.25;5090336;28;20637;-59
2022/12/29 07:33:34;;;;;;;56.50;30.10;;;;;;;6.20;100.00;100599.28;5090608;28;20202;-59
2022/12/29 07:36:00;;;;;;;52.00;30.97;;;;;;;6.21;100.00;100593.25;5090278;28;20198;-58
2022/12/29 07:38:27;;;;;;;48.63;29.37;;;;;;;6.08;100.00;100597.47;5090259;28;20206;-59
2022/12/29 07:40:58;;;;;;;53.30;28.70;;;;;;;5.99;100.00;100599.09;5089082;28;20269;-59
2022/12/29 07:43:25;;;;;;;60.37;30.50;;;;;;;6.01;100.00;100590.53;5089980;28;20195;-58
2022/12/29 07:45:52;;;;;;;51.50;28.63;;;;;;;6.00;100.00;100590.53;5090312;28;20286;-59
2022/12/29 07:48:20;;;;;;;55.37;29.40;;;;;;;5.82;100.00;100593.81;5090483;28;20192;-60
2022/12/29 07:50:47;;;;;;;61.30;30.03;;;;;;;5.69;100.00;100598.00;5090160;28;20217;-59
2022/12/29 07:53:14;;;;;;;56.97;28.90;;;;;;;5.60;100.00;100592.78;5090362;28;20194;-59
2022/12/29 07:55:41;;;;;;;53.00;29.03;;;;;;;5.50;100.00;100592.69;5090338;28;20289;-59
2022/12/29 07:58:08;;;;;;;57.63;30.13;;;;;;;5.48;100.00;100592.66;5090227;28;20286;-53
2022/12/29 08:00:35;;;;;;;50.67;28.27;;;;;;;5.46;100.00;100590.06;5089309;28;20233;-54
2022/12/29 08:03:02;;;;;;;57.23;29.20;;;;;;;5.60;100.00;100594.50;5089325;28;20743;-53
2022/12/29 08:05:31;;;;;;;54.40;29.00;;;;;;;5.72;100.00;100598.03;5089276;28;20592;-54
2022/12/29 08:07:58;;;;;;;46.83;25.87;;;;;;;5.87;100.00;100606.75;5089574;28;20217;-58
2022/12/29 08:10:25;;;;;;;45.87;26.07;;;;;;;5.89;100.00;100602.47;5089898;28;20485;-59
2022/12/29 08:12:52;;;;;;;50.60;25.87;;;;;;;5.95;100.00;100599.97;5090244;28;20205;-53
2022/12/29 08:15:19;;;;;;;43.63;24.87;;;;;;;5.84;100.00;100605.88;5089151;28;20233;-53
2022/12/29 08:17:46;;;;;;;42.40;25.23;;;;;;;6.03;100.00;100613.75;5088996;28;20285;-54
2022/12/29 08:20:13;;;;;;;40.23;23.30;;;;;;;6.13;100.00;100600.06;5089101;28;20230;-53
2022/12/29 08:22:41;;;;;;;37.63;24.63;;;;;;;6.17;100.00;100596.66;5088880;28;20205;-53
2022/12/29 08:25:09;;;;;;;38.83;24.47;;;;;;;5.94;100.00;100565.59;5089314;28;20238;-54
2022/12/29 08:27:36;;;;;;;42.97;25.03;;;;;;;6.17;100.00;100600.13;5088511;28;20191;-54
2022/12/29 08:30:03;;;;;;;43.53;25.00;;;;;;;6.26;100.00;100601.88;5090276;28;20200;-59
2022/12/29 08:32:30;;;;;;;42.47;26.47;;;;;;;6.49;100.00;100594.25;5089763;28;20205;-60
2022/12/29 08:34:57;;;;;;;45.77;26.47;;;;;;;6.62;100.00;100590.91;5089441;28;20252;-59
2022/12/29 08:37:24;;;;;;;46.17;27.83;;;;;;;6.66;100.00;100592.63;5088990;28;20230;-59
2022/12/29 08:39:52;;;;;;;48.73;26.67;;;;;;;6.74;100.00;100587.50;5089355;28;20245;-59
2022/12/29 08:42:19;;;;;;;50.90;27.13;;;;;;;6.88;100.00;100575.53;5089878;28;20231;-59
2022/12/29 08:44:46;;;;;;;44.33;27.13;;;;;;;6.78;100.00;100584.91;5089784;28;20222;-59
2022/12/29 08:47:13;;;;;;;45.17;27.17;;;;;;;6.88;100.00;100584.09;5089471;28;20223;-59
2022/12/29 08:49:39;;;;;;;44.40;25.93;;;;;;;7.02;100.00;100573.81;5088998;28;20707;-59
2022/12/29 08:52:06;;;;;;;41.03;27.17;;;;;;;7.17;100.00;100576.44;5091344;28;20231;-59
2022/12/29 08:54:33;;;;;;;45.43;26.57;;;;;;;7.27;100.00;100573.00;5093539;28;20691;-60
2022/12/29 08:57:02;;;;;;;48.70;27.20;;;;;;;7.39;100.00;100576.47;5093819;28;20612;-59
2022/12/29 08:59:29;;;;;;;48.57;27.90;;;;;;;7.24;100.00;100570.41;5092964;28;20219;-59
2022/12/29 09:01:56;;;;;;;47.97;26.77;;;;;;;7.31;100.00;100562.69;5093720;28;20219;-59
2022/12/29 09:04:23;;;;;;;47.97;26.47;;;;;;;7.40;100.00;100567.88;5093147;28;20229;-57
2022/12/29 09:06:51;;;;;;;45.87;26.73;;;;;;;7.48;100.00;100553.22;5093137;28;20215;-58
2022/12/29 09:09:18;;;;;;;44.23;27.50;;;;;;;7.55;100.00;100553.25;5093224;28;20199;-54
2022/12/29 09:11:45;;;;;;;66.47;31.43;;;;;;;7.58;100.00;100545.47;5091947;28;20560;-55
2022/12/29 09:14:14;;;;;;;78.43;37.90;;;;;;;7.66;100.00;100548.06;5092044;28;20196;-55
2022/12/29 09:19:25;;;;;;;82.07;38.47;;;;;;;7.79;100.00;100543.75;5092878;28;21034;-59
2022/12/29 09:21:52;;;;;;;52.40;30.83;;;;;;;7.91;100.00;100539.41;5093259;28;20219;-59
2022/12/29 09:24:19;;;;;;;44.93;27.23;;;;;;;7.74;100.00;100530.81;5093368;28;20203;-59
2022/12/29 09:26:46;;;;;;;57.97;31.30;;;;;;;7.74;100.00;100530.81;5093282;28;20299;-59
2022/12/29 09:29:14;;;;;;;53.83;29.70;;;;;;;7.91;100.00;100525.63;5092189;28;20221;-54
2022/12/29 09:31:41;;;;;;;47.70;28.27;;;;;;;7.92;100.00;100515.28;5091925;28;20191;-54
2022/12/29 09:34:08;;;;;;;54.07;29.63;;;;;;;8.02;100.00;100514.38;5091427;28;20205;-54
2022/12/29 09:36:35;;;;;;;47.33;28.20;;;;;;;8.20;100.00;100515.22;5091853;28;20206;-53
2022/12/29 09:39:01;;;;;;;44.77;26.77;;;;;;;8.29;100.00;100504.84;5091848;28;20283;-54
2022/12/29 09:41:35;;;;;;;42.60;25.87;;;;;;;8.42;100.00;100506.53;5091604;28;20227;-54
2022/12/29 09:44:14;;;;;;;40.80;24.57;;;;;;;8.48;100.00;100503.06;5091681;28;20196;-54
2022/12/29 09:46:47;;;;;;;44.27;25.73;;;;;;;8.55;100.00;100503.03;5091874;28;20195;-54
2022/12/29 09:49:22;;;;;;;39.60;23.83;;;;;;;8.62;100.00;100491.78;5092141;28;20208;-54
2022/12/29 09:51:53;;;;;;;43.67;24.33;;;;;;;8.64;100.00;100490.03;5091326;28;20193;-54
2022/12/29 09:54:42;;;;;;;36.07;21.93;;;;;;;8.75;100.00;100484.81;5091185;28;20591;-54
2022/12/29 09:57:17;;;;;;;32.23;20.57;;;;;;;8.70;100.00;100465.84;5091749;28;20265;-54
2022/12/29 09:59:47;;;;;;;30.90;17.70;;;;;;;8.77;100.00;100474.44;5091339;28;20201;-54
2022/12/29 10:02:27;;;;;;;19.73;14.67;;;;;;;8.82;100.00;100464.91;5092145;28;20638;-58
2022/12/29 10:04:54;;;;;;;24.60;15.80;;;;;;;8.92;100.00;100477.78;5092195;28;20201;-58
2022/12/29 10:07:32;;;;;;;24.87;18.60;;;;;;;8.90;100.00;100456.25;5092635;28;20241;-59
2022/12/29 10:10:08;;;;;;;29.50;19.57;;;;;;;8.88;100.00;100457.13;5092635;28;20199;-58
2022/12/29 10:12:53;;;;;;;28.47;20.17;;;;;;;8.83;100.00;100458.88;5092091;28;20194;-58
2022/12/29 10:15:34;;;;;;;34.43;20.60;;;;;;;8.64;100.00;100409.81;5091807;28;20209;-54
2022/12/29 10:18:18;;;;;;;42.97;19.80;;;;;;;8.92;100.00;100451.88;5089666;28;20237;-53
2022/12/29 10:20:51;;;;;;;31.77;20.23;;;;;;;8.94;100.00;100446.72;5090229;28;20255;-53
2022/12/29 10:23:28;;;;;;;28.80;20.53;;;;;;;8.93;100.00;100444.97;5087688;28;20191;-54
2022/12/29 10:25:56;;;;;;;37.83;21.90;;;;;;;9.05;100.00;100444.91;5091005;28;20207;-54
2022/12/29 10:28:35;;;;;;;41.87;22.00;;;;;;;9.08;100.00;100440.56;5091023;28;20200;-54
2022/12/29 10:31:05;;;;;;;31.70;21.40;;;;;;;9.00;100.00;100444.94;5091367;28;20547;-54
2022/12/29 10:33:38;;;;;;;37.67;21.10;;;;;;;9.13;100.00;100442.25;5090859;28;20206;-54
2022/12/29 10:36:14;;;;;;;35.03;22.27;;;;;;;9.25;100.00;100436.97;5090768;28;20298;-54
2022/12/29 10:38:47;;;;;;;39.53;22.43;;;;;;;9.33;100.00;100430.84;5090715;28;20199;-54
2022/12/29 10:41:19;;;;;;;33.57;21.83;;;;;;;9.41;100.00;100429.03;5090093;28;20674;-54
2022/12/29 10:43:49;;;;;;;43.30;20.60;;;;;;;9.38;100.00;100417.84;5090308;28;20191;-54
2022/12/29 10:46:20;;;;;;;32.90;21.07;;;;;;;9.44;100.00;100429.03;5090734;28;20187;-55
2022/12/29 10:48:48;;;;;;;39.60;21.77;;;;;;;9.50;100.00;100428.09;5090609;28;20196;-54
2022/12/29 10:51:22;;;;;;;35.20;20.80;;;;;;;9.56;100.00;100430.63;5090624;28;20562;-55
2022/12/29 10:53:52;;;;;;;34.87;21.07;;;;;;;9.48;100.00;100413.44;5090678;28;20583;-54
2022/12/29 10:56:28;;;;;;;41.70;22.60;;;;;;;9.52;100.00;100425.47;5091592;28;20199;-59
2022/12/29 10:58:57;;;;;;;33.37;22.03;;;;;;;9.54;100.00;100423.75;5091510;28;20195;-59
2022/12/29 11:01:35;;;;;;;35.20;21.37;;;;;;;9.52;100.00;100421.16;5090849;28;20593;-59
2022/12/29 11:04:16;;;;;;;34.60;21.40;;;;;;;9.52;100.00;100413.38;5089415;28;20191;-59
2022/12/29 11:06:44;;;;;;;40.10;26.27;;;;;;;9.43;100.00;100403.97;5090410;28;20219;-59
2022/12/29 11:09:16;;;;;;;33.43;23.57;;;;;;;9.38;100.00;100390.19;5091365;28;20205;-59
2022/12/29 11:11:43;;;;;;;37.37;25.10;;;;;;;9.36;100.00;100399.75;5090867;28;20718;-59
2022/12/29 11:14:14;;;;;;;42.73;26.60;;;;;;;9.42;100.00;100404.84;5090965;28;20290;-59
2022/12/29 11:16:43;;;;;;;39.10;23.00;;;;;;;9.52;100.00;100396.97;5090722;28;20199;-59
2022/12/29 11:19:23;;;;;;;38.07;24.07;;;;;;;9.56;100.00;100385.72;5090844;28;20294;-59
2022/12/29 11:21:50;;;;;;;39.57;24.97;;;;;;;9.63;100.00;100388.22;5088656;28;20230;-59
2022/12/29 11:24:23;;;;;;;39.23;25.07;;;;;;;9.61;100.00;100377.00;5089902;28;20199;-59
2022/12/29 11:26:52;;;;;;;39.20;24.00;;;;;;;9.61;100.00;100373.53;5089741;28;20202;-59
2022/12/29 11:29:25;;;;;;;34.27;23.37;;;;;;;9.66;100.00;100376.97;5087138;28;20702;-59
2022/12/29 11:31:54;;;;;;;38.73;24.77;;;;;;;9.76;100.00;100375.97;5089281;28;20290;-59
2022/12/29 11:34:25;;;;;;;36.83;24.20;;;;;;;9.83;100.00;100382.78;5089464;28;20198;-58
2022/12/29 11:36:54;;;;;;;41.33;23.13;;;;;;;9.91;100.00;100380.13;5089395;28;20202;-54
2022/12/29 11:39:33;;;;;;;43.43;28.93;;;;;;;9.93;100.00;100379.19;5086892;28;20219;-54
2022/12/29 11:42:02;;;;;;;115.47;68.57;;;;;;;9.99;100.00;100376.56;5084578;28;20219;-57
2022/12/29 11:44:37;;;;;;;82.17;46.03;;;;;;;10.05;100.00;100366.09;5087088;28;20217;-54
2022/12/29 11:47:06;;;;;;;58.20;33.63;;;;;;;10.01;100.00;100374.81;5086653;28;20206;-53
2022/12/29 11:49:34;;;;;;;44.13;26.30;;;;;;;9.96;100.00;100371.41;5087197;28;20277;-55
2022/12/29 11:52:01;;;;;;;85.87;44.97;;;;;;;10.05;100.00;100360.91;5088048;28;20187;-55
2022/12/29 11:54:32;;;;;;;59.40;35.97;;;;;;;10.07;100.00;100359.16;5085884;28;20196;-56
2022/12/29 11:57:09;;;;;;;49.83;29.93;;;;;;;10.11;100.00;100358.25;5087834;28;20206;-55